sensor_id;sensor_type;location;lat;lon;timestamp;pressure;altitude;pressure_sealevel;temperature;humidity
75794;BME280;64418;47.536;19.074;2024-02-21T02:59:08;101040.59;;;6.03;100.00
75794;BME280;64418;47.536;19.074;2024-02-21T10:05:34;101102.78;;;12.12;78.58
75794;BME280;64418;47.536;19.074;2024-02-21T10:08:01;101099.69;;;12.21;78.78
75794;BME280;64418;47.536;19.074;2024-02-21T10:10:27;101088.41;;;12.65;74.24
75794;BME280;64418;47.536;19.074;2024-02-21T10:12:53;101088.69;;;12.36;76.33
75794;BME280;64418;47.536;19.074;2024-02-21T10:15:23;101089.41;;;13.05;73.00
75794;BME280;64418;47.536;19.074;2024-02-21T10:17:58;101080.75;;;13.56;71.14
75794;BME280;64418;47.536;19.074;2024-02-21T10:20:25;101082.38;;;14.22;65.01
75794;BME280;64418;47.536;19.074;2024-02-21T10:23:14;101089.47;;;14.94;62.37
75794;BME280;64418;47.536;19.074;2024-02-21T10:25:44;101079.41;;;15.26;59.88
75794;BME280;64418;47.536;19.074;2024-02-21T10:28:18;101068.09;;;14.20;61.62
75794;BME280;64418;47.536;19.074;2024-02-21T10:30:59;101085.56;;;13.80;64.36
75794;BME280;64418;47.536;19.074;2024-02-21T10:33:26;101081.53;;;13.30;67.62
75794;BME280;64418;47.536;19.074;2024-02-21T10:35:52;101074.44;;;13.42;68.15
75794;BME280;64418;47.536;19.074;2024-02-21T10:41:49;101070.19;;;12.52;73.73
75794;BME280;64418;47.536;19.074;2024-02-21T10:44:27;101065.88;;;11.89;77.55
75794;BME280;64418;47.536;19.074;2024-02-21T10:46:55;101062.25;;;12.17;76.14
75794;BME280;64418;47.536;19.074;2024-02-21T10:49:24;101047.06;;;11.94;78.59
75794;BME280;64418;47.536;19.074;2024-02-21T10:52:12;101046.34;;;12.07;78.47
75794;BME280;64418;47.536;19.074;2024-02-21T10:55:12;101041.91;;;11.99;78.80
75794;BME280;64418;47.536;19.074;2024-02-21T10:57:58;101004.28;;;12.37;75.96
75794;BME280;64418;47.536;19.074;2024-02-21T11:00:26;101030.47;;;12.58;75.88
75794;BME280;64418;47.536;19.074;2024-02-21T11:02:57;101035.53;;;12.20;77.33
75794;BME280;64418;47.536;19.074;2024-02-21T11:08:23;100959.69;;;11.78;79.75
75794;BME280;64418;47.536;19.074;2024-02-21T11:11:05;101023.16;;;13.45;72.75
75794;BME280;64418;47.536;19.074;2024-02-21T11:13:46;101011.91;;;14.83;64.46
75794;BME280;64418;47.536;19.074;2024-02-21T11:16:23;101014.97;;;16.35;57.88
75794;BME280;64418;47.536;19.074;2024-02-21T11:18:59;101002.59;;;15.22;58.18
75794;BME280;64418;47.536;19.074;2024-02-21T13:35:50;100866.19;;;11.52;68.40
75794;BME280;64418;47.536;19.074;2024-02-21T13:49:16;100847.53;;;13.23;60.38
75794;BME280;64418;47.536;19.074;2024-02-21T15:18:53;100799.19;;;11.59;59.93
75794;BME280;64418;47.536;19.074;2024-02-21T15:21:21;100792.06;;;11.45;60.27
75794;BME280;64418;47.536;19.074;2024-02-21T15:23:48;100791.69;;;11.55;60.02
75794;BME280;64418;47.536;19.074;2024-02-21T15:26:17;100764.94;;;11.45;60.16
75794;BME280;64418;47.536;19.074;2024-02-21T15:28:47;100787.13;;;11.55;60.13
75794;BME280;64418;47.536;19.074;2024-02-21T16:26:44;100776.66;;;10.28;65.38
75794;BME280;64418;47.536;19.074;2024-02-21T16:29:18;100779.78;;;10.25;65.81
75794;BME280;64418;47.536;19.074;2024-02-21T16:31:48;100721.94;;;9.90;65.98
75794;BME280;64418;47.536;19.074;2024-02-21T16:34:29;100782.44;;;10.19;66.22
75794;BME280;64418;47.536;19.074;2024-02-21T16:36:58;100775.87;;;10.13;66.62
75794;BME280;64418;47.536;19.074;2024-02-21T16:39:25;100771.19;;;10.22;67.19
75794;BME280;64418;47.536;19.074;2024-02-21T16:42:00;100776.63;;;10.22;67.33
75794;BME280;64418;47.536;19.074;2024-02-21T16:44:28;100773.06;;;10.21;67.26
75794;BME280;64418;47.536;19.074;2024-02-21T16:46:57;100779.50;;;10.20;67.47
75794;BME280;64418;47.536;19.074;2024-02-21T16:49:24;100778.88;;;10.18;67.98
75794;BME280;64418;47.536;19.074;2024-02-21T17:19:24;100787.91;;;10.25;69.10
75794;BME280;64418;47.536;19.074;2024-02-21T17:21:52;100778.53;;;10.28;68.62
75794;BME280;64418;47.536;19.074;2024-02-21T17:24:19;100773.97;;;10.28;68.40
75794;BME280;64418;47.536;19.074;2024-02-21T17:26:46;100776.22;;;10.25;68.62
75794;BME280;64418;47.536;19.074;2024-02-21T17:29:13;100774.62;;;10.30;68.07
75794;BME280;64418;47.536;19.074;2024-02-21T17:31:47;100764.19;;;10.27;67.66
75794;BME280;64418;47.536;19.074;2024-02-21T17:34:14;100766.06;;;10.27;67.47
75794;BME280;64418;47.536;19.074;2024-02-21T17:36:42;100764.56;;;10.24;67.40
75794;BME280;64418;47.536;19.074;2024-02-21T17:39:09;100763.34;;;10.27;66.74
75794;BME280;64418;47.536;19.074;2024-02-21T17:41:42;100761.25;;;10.29;65.60
75794;BME280;64418;47.536;19.074;2024-02-21T17:44:14;100752.50;;;10.27;65.00
75794;BME280;64418;47.536;19.074;2024-02-21T17:46:43;100753.72;;;10.24;65.74
75794;BME280;64418;47.536;19.074;2024-02-21T17:49:10;100743.94;;;10.23;65.99
75794;BME280;64418;47.536;19.074;2024-02-21T17:51:36;100755.13;;;10.20;65.73
75794;BME280;64418;47.536;19.074;2024-02-21T17:54:04;100720.22;;;10.04;64.98
75794;BME280;64418;47.536;19.074;2024-02-21T17:56:30;100752.25;;;10.22;64.96
75794;BME280;64418;47.536;19.074;2024-02-21T17:58:56;100751.41;;;10.21;64.82
75794;BME280;64418;47.536;19.074;2024-02-21T18:01:22;100752.81;;;10.17;65.23
75794;BME280;64418;47.536;19.074;2024-02-21T18:03:48;100743.88;;;10.17;65.01
75794;BME280;64418;47.536;19.074;2024-02-21T18:06:15;100668.28;;;9.73;64.75
75794;BME280;64418;47.536;19.074;2024-02-21T18:08:41;100745.25;;;10.12;64.88
75794;BME280;64418;47.536;19.074;2024-02-21T18:11:09;100746.50;;;10.10;65.04
75794;BME280;64418;47.536;19.074;2024-02-21T18:13:36;100741.06;;;10.10;64.78
75794;BME280;64418;47.536;19.074;2024-02-21T18:16:05;100739.38;;;10.09;64.34
75794;BME280;64418;47.536;19.074;2024-02-21T18:18:32;100730.62;;;10.07;64.44
75794;BME280;64418;47.536;19.074;2024-02-21T18:21:00;100733.97;;;10.09;64.67
75794;BME280;64418;47.536;19.074;2024-02-21T18:23:26;100731.22;;;10.02;64.91
75794;BME280;64418;47.536;19.074;2024-02-21T18:25:52;100729.75;;;10.00;65.50
75794;BME280;64418;47.536;19.074;2024-02-21T18:28:21;100736.00;;;10.00;64.85
75794;BME280;64418;47.536;19.074;2024-02-21T18:34:10;100732.84;;;9.97;65.05
75794;BME280;64418;47.536;19.074;2024-02-21T18:36:39;100728.47;;;9.96;64.96
75794;BME280;64418;47.536;19.074;2024-02-21T18:39:05;100727.63;;;9.95;65.28
75794;BME280;64418;47.536;19.074;2024-02-21T18:41:41;100727.63;;;9.95;66.19
75794;BME280;64418;47.536;19.074;2024-02-21T18:44:20;100725.47;;;9.91;66.84
75794;BME280;64418;47.536;19.074;2024-02-21T18:49:24;100728.84;;;9.93;67.20
75794;BME280;64418;47.536;19.074;2024-02-21T18:51:54;100723.78;;;9.90;68.26
75794;BME280;64418;47.536;19.074;2024-02-21T18:54:21;100713.19;;;9.88;68.97
75794;BME280;64418;47.536;19.074;2024-02-21T18:56:49;100715.63;;;9.83;69.25
75794;BME280;64418;47.536;19.074;2024-02-21T19:01:55;100715.97;;;9.74;70.87
75794;BME280;64418;47.536;19.074;2024-02-21T19:04:22;100717.56;;;9.68;71.73
75794;BME280;64418;47.536;19.074;2024-02-21T19:06:49;100704.03;;;9.68;72.03
75794;BME280;64418;47.536;19.074;2024-02-21T19:09:15;100705.66;;;9.62;72.45
75794;BME280;64418;47.536;19.074;2024-02-21T19:11:42;100704.34;;;9.58;72.19
75794;BME280;64418;47.536;19.074;2024-02-21T19:14:13;100664.97;;;9.35;72.54
75794;BME280;64418;47.536;19.074;2024-02-21T19:16:44;100687.59;;;9.48;72.79
75794;BME280;64418;47.536;19.074;2024-02-21T19:19:13;100683.41;;;9.46;72.80
75794;BME280;64418;47.536;19.074;2024-02-21T19:21:55;100697.38;;;9.49;71.97
75794;BME280;64418;47.536;19.074;2024-02-21T19:30:13;100684.25;;;9.46;72.87
75794;BME280;64418;47.536;19.074;2024-02-21T19:32:41;100680.53;;;9.47;72.68
75794;BME280;64418;47.536;19.074;2024-02-21T19:35:10;100678.84;;;9.46;73.29
75794;BME280;64418;47.536;19.074;2024-02-21T19:42:49;100678.97;;;9.38;75.28
75794;BME280;64418;47.536;19.074;2024-02-21T20:01:43;100665.91;;;9.06;79.94
75794;BME280;64418;47.536;19.074;2024-02-21T20:04:15;100666.25;;;9.03;80.56
75794;BME280;64418;47.536;19.074;2024-02-21T20:06:46;100657.53;;;9.01;81.30
75794;BME280;64418;47.536;19.074;2024-02-21T20:09:22;100664.97;;;8.99;81.50
75794;BME280;64418;47.536;19.074;2024-02-21T20:11:51;100656.22;;;8.97;81.69
75794;BME280;64418;47.536;19.074;2024-02-21T20:42:43;100637.25;;;8.76;86.15
75794;BME280;64418;47.536;19.074;2024-02-21T20:45:18;100633.50;;;8.77;86.41
75794;BME280;64418;47.536;19.074;2024-02-21T20:52:59;100631.28;;;8.65;87.73
75794;BME280;64418;47.536;19.074;2024-02-21T20:55:28;100625.19;;;8.57;88.11
75794;BME280;64418;47.536;19.074;2024-02-21T20:58:00;100632.81;;;8.53;88.41
75794;BME280;64418;47.536;19.074;2024-02-21T21:00:33;100640.81;;;8.47;88.77
75794;BME280;64418;47.536;19.074;2024-02-21T21:03:09;100638.47;;;8.44;90.00
75794;BME280;64418;47.536;19.074;2024-02-21T21:05:37;100644.44;;;8.39;91.20
75794;BME280;64418;47.536;19.074;2024-02-21T21:08:06;100648.19;;;8.38;92.47
75794;BME280;64418;47.536;19.074;2024-02-21T21:13:24;100629.28;;;8.38;93.31
75794;BME280;64418;47.536;19.074;2024-02-21T21:16:45;100627.22;;;8.40;94.00
75794;BME280;64418;47.536;19.074;2024-02-21T21:19:12;100624.22;;;8.35;93.71
75794;BME280;64418;47.536;19.074;2024-02-21T21:21:38;100628.22;;;8.39;96.91
75794;BME280;64418;47.536;19.074;2024-02-21T21:24:06;100621.81;;;8.40;97.04
75794;BME280;64418;47.536;19.074;2024-02-21T21:26:34;100618.94;;;8.42;96.59
75794;BME280;64418;47.536;19.074;2024-02-21T21:29:12;100620.81;;;8.41;96.12
75794;BME280;64418;47.536;19.074;2024-02-21T21:31:39;100615.12;;;8.36;96.48
75794;BME280;64418;47.536;19.074;2024-02-21T21:34:06;100614.47;;;8.34;96.37
75794;BME280;64418;47.536;19.074;2024-02-21T21:36:35;100607.41;;;8.33;96.92
75794;BME280;64418;47.536;19.074;2024-02-21T21:39:21;100604.38;;;8.28;97.45
75794;BME280;64418;47.536;19.074;2024-02-21T21:42:02;100606.44;;;8.26;97.34
75794;BME280;64418;47.536;19.074;2024-02-21T21:47:33;100599.53;;;8.23;97.24
75794;BME280;64418;47.536;19.074;2024-02-21T21:50:04;100562.50;;;8.03;97.37
75794;BME280;64418;47.536;19.074;2024-02-21T21:52:34;100600.09;;;8.19;97.36
75794;BME280;64418;47.536;19.074;2024-02-21T21:55:07;100596.09;;;8.15;97.49
75794;BME280;64418;47.536;19.074;2024-02-21T22:13:18;100593.28;;;8.08;97.52
75794;BME280;64418;47.536;19.074;2024-02-21T22:15:45;100601.59;;;8.07;97.96
75794;BME280;64418;47.536;19.074;2024-02-21T22:18:12;100590.97;;;8.05;98.18
75794;BME280;64418;47.536;19.074;2024-02-21T22:20:42;100596.56;;;8.04;98.21
75794;BME280;64418;47.536;19.074;2024-02-21T22:23:11;100606.69;;;8.02;98.45
75794;BME280;64418;47.536;19.074;2024-02-21T22:25:44;100596.09;;;8.00;98.43
75794;BME280;64418;47.536;19.074;2024-02-21T22:28:10;100593.94;;;7.96;99.13
75794;BME280;64418;47.536;19.074;2024-02-21T22:30:39;100591.25;;;7.96;99.14
75794;BME280;64418;47.536;19.074;2024-02-21T22:33:05;100589.09;;;7.91;99.75
75794;BME280;64418;47.536;19.074;2024-02-21T22:35:33;100582.38;;;7.87;100.00
75794;BME280;64418;47.536;19.074;2024-02-21T22:38:00;100578.59;;;7.82;100.00
75794;BME280;64418;47.536;19.074;2024-02-21T22:40:27;100555.47;;;7.64;100.00
75794;BME280;64418;47.536;19.074;2024-02-21T22:42:58;100577.28;;;7.78;100.00
75794;BME280;64418;47.536;19.074;2024-02-21T22:45:27;100570.38;;;7.75;100.00
75794;BME280;64418;47.536;19.074;2024-02-21T22:50:30;100572.87;;;7.62;100.00
75794;BME280;64418;47.536;19.074;2024-02-21T22:52:58;100567.34;;;7.55;100.00
75794;BME280;64418;47.536;19.074;2024-02-21T22:55:28;100554.97;;;7.46;100.00
75794;BME280;64418;47.536;19.074;2024-02-21T22:57:55;100560.44;;;7.38;100.00
75794;BME280;64418;47.536;19.074;2024-02-21T23:03:40;100548.13;;;7.21;100.00
75794;BME280;64418;47.536;19.074;2024-02-21T23:06:10;100527.41;;;6.99;100.00
75794;BME280;64418;47.536;19.074;2024-02-21T23:08:36;100492.78;;;6.65;100.00
75794;BME280;64418;47.536;19.074;2024-02-21T23:11:05;100426.94;;;6.30;100.00
75794;BME280;64418;47.536;19.074;2024-02-21T23:13:35;100540.62;;;6.86;100.00
75794;BME280;64418;47.536;19.074;2024-02-21T23:16:01;100529.91;;;6.77;100.00
75794;BME280;64418;47.536;19.074;2024-02-21T23:18:28;100526.22;;;6.78;100.00
75794;BME280;64418;47.536;19.074;2024-02-21T23:20:54;100536.25;;;6.85;100.00
75794;BME280;64418;47.536;19.074;2024-02-21T23:23:23;100542.59;;;6.92;100.00
75794;BME280;64418;47.536;19.074;2024-02-21T23:25:54;100525.75;;;6.98;100.00
75794;BME280;64418;47.536;19.074;2024-02-21T23:28:22;100527.28;;;6.92;100.00
75794;BME280;64418;47.536;19.074;2024-02-21T23:30:49;100523.47;;;6.87;100.00
75794;BME280;64418;47.536;19.074;2024-02-21T23:33:23;100522.50;;;6.80;100.00
75794;BME280;64418;47.536;19.074;2024-02-21T23:35:54;100509.09;;;6.71;100.00
75794;BME280;64418;47.536;19.074;2024-02-21T23:38:45;100505.09;;;6.67;100.00
75794;BME280;64418;47.536;19.074;2024-02-21T23:41:18;100472.44;;;6.40;100.00
75794;BME280;64418;47.536;19.074;2024-02-21T23:43:47;100494.09;;;6.46;100.00
75794;BME280;64418;47.536;19.074;2024-02-21T23:46:21;100419.41;;;5.95;100.00
75794;BME280;64418;47.536;19.074;2024-02-21T23:48:49;100489.09;;;6.35;100.00
75794;BME280;64418;47.536;19.074;2024-02-21T23:51:24;100452.25;;;6.13;100.00
75794;BME280;64418;47.536;19.074;2024-02-21T23:53:55;100477.56;;;6.26;100.00
75794;BME280;64418;47.536;19.074;2024-02-21T23:56:22;100462.97;;;6.21;100.00
75794;BME280;64418;47.536;19.074;2024-02-21T23:59:16;100463.31;;;6.18;100.00
